Flight Track Log - Related Links

Times and Time Zones

All times are in EDT time to prevent confusion due to time zone crossing. See the ASQ185B flight status page for this flight to view local times or setup timezone preferences in your user account.

Time Position Orientation Groundspeed Altitude Reporting Facility
EDT Latitude Longitude Course Direction KTS MPH feet Rate Location/Type
Tue 04:34:30 PM 29.9622 -95.3458 130° Southeast 166 191 600  Level Houston Center
Tue 04:35:25 PM 29.9322 -95.3039 123° Southeast 221 254 2,000 1,673 Climbing Houston Center
Tue 04:36:14 PM 29.9003 -95.2478 127° Southeast 260 299 3,500 1,552 Climbing Houston Center
Tue 04:37:21 PM 29.8500 -95.1717 126° Southeast 262 302 5,000 1,395 Climbing Houston Center
Tue 04:38:23 PM 29.8058 -95.1008 158° South 267 307 6,500 1,860 Climbing Houston Center
Tue 04:39:30 PM 29.7336 -95.0675 205° Southwest 284 327 9,000 2,069 Climbing Houston Center
Tue 04:40:19 PM 29.6744 -95.0989 205° Southwest 291 335 10,500 1,473 Climbing Houston Center
Tue 04:41:20 PM 29.5961 -95.1417 205° Southwest 324 373 11,700 1,000 Climbing Houston Center
Tue 04:42:43 PM 29.4797 -95.2047 205° Southwest 366 421 12,900 1,133 Climbing Houston Center
Tue 04:43:43 PM 29.3886 -95.2539 209° Southwest 366 421 14,400 1,300 Climbing Houston Center
Tue 04:44:43 PM 29.2994 -95.3106 209° Southwest 366 421 15,500 1,000 Climbing Houston Center
Tue 04:45:43 PM 29.2081 -95.3692 209° Southwest 379 436 16,400 950 Climbing Houston Center
Tue 04:46:43 PM 29.1125 -95.4300 208° Southwest 385 443 17,400 950 Climbing Houston Center
Tue 04:47:43 PM 29.0125 -95.4906 210° Southwest 396 456 18,300 1,000 Climbing Houston Center
Tue 04:48:43 PM 28.9147 -95.5558 208° Southwest 402 463 19,400 1,150 Climbing Houston Center
Tue 04:49:43 PM 28.8150 -95.6161 209° Southwest 408 470 20,600 1,100 Climbing Houston Center
Tue 04:50:43 PM 28.7150 -95.6786 210° Southwest 408 470 21,600 950 Climbing Houston Center
Tue 04:51:43 PM 28.6147 -95.7436 207° Southwest 413 475 22,500 900 Climbing Houston Center
Tue 04:52:43 PM 28.5128 -95.8033 209° Southwest 413 475 23,400 750 Climbing Houston Center
Tue 04:53:43 PM 28.4106 -95.8681 208° Southwest 418 481 24,000 300 Climbing Houston Center
Tue 04:54:43 PM 28.3022 -95.9322 212° Southwest 424 488 24,000  Level Houston Center
Tue 04:55:43 PM 28.1933 -96.0081 208° Southwest 445 512 24,000  Level Houston Center
Tue 04:56:43 PM 28.0825 -96.0742 208° Southwest 458 527 24,000  Level Houston Center
Tue 04:57:43 PM 27.9656 -96.1444 209° Southwest 465 535 24,000  Level Houston Center
Tue 04:58:43 PM 27.8503 -96.2172 211° Southwest 471 542 24,000  Level Houston Center
Tue 04:59:43 PM 27.7372 -96.2947 228° Southwest 471 542 24,000  Level Houston Center
Tue 05:00:43 PM 27.6478 -96.4058 227° Southwest 471 542 24,000  Level Houston Center
Tue 05:01:43 PM 27.5628 -96.5075 228° Southwest 466 536 24,000  Level Houston Center
Tue 05:02:43 PM 27.4775 -96.6136 228° Southwest 461 531 24,000  Level Houston Center
Tue 05:03:43 PM 27.3878 -96.7267 224° Southwest 474 545 24,000  Level Houston Center
Tue 05:04:43 PM 27.2856 -96.8389 229° Southwest 480 552 24,000  Level Houston Center
Tue 05:05:43 PM 27.2022 -96.9469 226° Southwest 474 545 24,000  Level Houston Center
Tue 05:06:43 PM 27.1125 -97.0522 228° Southwest 474 545 24,000  Level Houston Center
Tue 05:07:43 PM 27.0247 -97.1600 228° Southwest 474 545 24,000 -650 Level Houston Center
Tue 05:08:43 PM 26.9414 -97.2628 212° Southwest 474 545 22,700 -1,626 Descending Houston Center
Tue 05:09:30 PM 26.8575 -97.3214 186° South 451 519 21,100 -2,350 Descending Houston Center
Tue 05:10:43 PM 26.7128 -97.3397 191° South 433 498 18,000 -2,531 Descending Houston Center
Tue 05:11:38 PM 26.6031 -97.3644 192° South 424 488 15,700 -2,557 Descending Houston Center
Tue 05:12:38 PM 26.4936 -97.3911 191° South 415 478 13,100 -2,380 Descending Houston Center
Tue 05:13:39 PM 26.3819 -97.4158 194° South 374 430 10,900 -1,623 Descending Houston Center
Tue 05:14:40 PM 26.2911 -97.4411 191° South 327 376 9,800 -1,574 Descending Houston Center
Tue 05:15:41 PM 26.2111 -97.4578 191° South 296 341 7,700 -2,146 Descending Houston Center
Tue 05:16:43 PM 26.1331 -97.4747 193° South 287 330 5,400 -2,016 Descending Houston Center
Tue 05:17:43 PM 26.0719 -97.4900 191° South 267 307 3,600 -1,700 Descending Houston Center
Tue 05:18:43 PM 26.0025 -97.5050 156° South 245 282 2,000 -950 Descending Houston Center
Tue 05:19:43 PM 25.9617 -97.4844 139° Southeast 191 220 1,700 -750 Descending Houston Center
Tue 05:20:43 PM 25.9314 -97.4553 142° Southeast 146 168 500 -700 Descending Houston Center
Tue 05:21:43 PM 25.9033 -97.4306 144° Southeast 136 157 300 11,750 Descending Houston Center
Tue 05:22:43 PM 25.8731 -97.4061 341° North 136 157 24,000 23,700 Climbing Houston Center
Tue 05:30:32 PM 25.9000 -97.4167 310° West  Level FlightAware Approximate
Tue 05:31:32 PM 25.9755 -97.5181 310° West  Level Estimated

Login

Don't have an account? Register now (free) for customized features, flight alerts, and more!